Matthew Butler

Olheiro - Plymouth Argyle
8 Jan 2028
Sábado
Processo

Personalidade

Adaptabilidade (5) Ambição (10) Controvérsia (17) Lealdade (13) Pressão (19) Profissionalismo (5) Espírito Esportivo (11) Temperamento (6)

Perfil

Estilo de Treinamento Democrático
Licença Continental C
Determinação 7
Gestão de Pessoas 7
Motivação 10
Disciplina 10
Satisfação no Trabalho
100%
Fadiga
0%
Função Olheiro
Salário 21.1K p/s
Contrato 14.03.2029

Desempenho

Comportamento Bom
Eficácia do Treinamento
49%
Desenvolvimento do Jogador
60%
Prevenção de Lesões
20%
Implementação Tática
60%

Eventos Recentes

Participou de uma reunião de recrutamento 7d atrás
Participou de uma reunião de recrutamento 14d atrás
Participou de uma reunião de recrutamento 21d atrás
Participou de uma reunião de recrutamento 28d atrás
Participou de uma reunião de recrutamento 35d atrás
Participou de uma reunião de recrutamento 42d atrás
Participou de uma reunião de recrutamento 49d atrás
Participou de uma reunião de recrutamento 56d atrás

Monitorando agora

81
Jogador Clube Status Habilidade Confiança Observado Última observação Último voto
Alfie Massey Millwall Ativo 95 / 108 51% 1 01.01.2028 -
Joel McGregor Swindon Town Ativo 88 / 101 40% 3 24.05.2027 -
Sheriff Amuda Shooting Stars Ativo 74 / 101 40% 1 24.05.2027 -
Martim Cunha Porto Ativo 108 / 102 40% 2 22.05.2027 -
Khama Dolly Black Aces Ativo 87 / 77 40% 2 21.05.2027 -
Edmund Inusah WAFA Ativo 95 / 90 40% 2 17.05.2027 -
Mauricio Amaro Atlanta United FC Ativo 142 / 140 40% 1 17.05.2027 -
Rhys Chadwick Gillingham Ativo 87 / 105 40% 1 08.05.2027 -
Gladson Sulemana Liberty Professionals Ativo 108 / 90 40% 3 05.05.2027 -
Hosea Michael Remo Stars Ativo 95 / 96 40% 1 04.05.2027 -
Ronan Kpakio Brentford Ativo 124 / 118 40% 1 01.05.2027 -
Maeson King Blackpool Ativo 94 / 114 40% 3 27.04.2027 -
Lucas Jetten Cambuur Ativo 112 / 114 40% 1 27.04.2027 -
Jake Batty Bristol Rovers Ativo 106 / 115 40% 2 26.04.2027 -
Ollie Gofford Excelsior Ativo 73 / 92 40% 1 25.04.2027 -
Riley Owen Wycombe Wanderers Ativo 88 / 116 40% 2 23.04.2027 -
Jacob Wright Norwich City Ativo 127 / 133 40% 1 23.04.2027 -
T-Jay Parfitt Cardiff City Ativo 98 / 103 40% 1 20.04.2027 -
Riquelme Thompson-Jones Shrewsbury Town Ativo 107 / 106 40% 1 13.04.2027 -
Abraham Paintsil Hasaacas Ativo 72 / 86 40% 5 11.04.2027 -
Joe Bauress KV Oostende Ativo 94 / 98 40% 1 11.04.2027 -
Caleb Yirenkyi Coventry City Ativo 151 / 148 40% 2 10.04.2027 -
Cemran Dansin Orlando Pirates Ativo 101 / 115 40% 2 23.03.2027 -
Sam Curtis Swindon Town Ativo 113 / 111 40% 1 22.03.2027 -
Dylan Lawlor Cardiff City Ativo 102 / 116 40% 2 16.03.2027 -
Nico Valentine Wycombe Wanderers Ativo 88 / 81 40% 1 19.01.2027 -
Tariq Lamptey Queens Park Rangers Ativo 140 / 125 40% 2 30.12.2026 -
Isaiah Jones Luton Town Ativo 119 / 117 40% 2 28.12.2026 -
Japhet Tanganga Sheffield United Ativo 128 / 136 40% 2 20.12.2026 -
Florentino Luís Ipswich Town Ativo 146 / 130 40% 2 20.12.2026 -
Di'Shon Bernard Sheffield Wednesday Ativo 124 / 130 40% 3 18.12.2026 -
Goodman Mosele Chippa United Ativo 111 / 119 40% 1 17.12.2026 -
Simphiwe Selepe Orlando Pirates Ativo 117 / 103 40% 1 17.12.2026 -
Tshepang Moremi Orlando Pirates Ativo 105 / 114 40% 1 16.12.2026 -
Tom Fellows Southampton Ativo 115 / 139 40% 1 15.12.2026 -
Neco Williams Nottingham Forest Ativo 153 / 150 40% 1 15.12.2026 -
Max Conway Bolton Wanderers Ativo 106 / 123 40% 1 13.12.2026 -
Louie Barry Sheffield Wednesday Ativo 128 / 117 40% 1 10.12.2026 -
Romaine Mundle Sunderland Ativo 142 / 141 40% 1 10.12.2026 -
Ali Ahmed Norwich City Ativo 118 / 128 40% 1 09.12.2026 -
Thulani Phiri Platinum Stars Ativo 130 / 127 40% 1 08.12.2026 -
Brooke Norton-Cuffy Hull City Ativo 135 / 136 40% 1 08.12.2026 -
Jacob Greaves Ipswich Town Ativo 125 / 129 40% 2 06.12.2026 -
Josh Edwards Charlton Athletic Ativo 120 / 128 40% 1 06.12.2026 -
José Córdoba Norwich City Ativo 134 / 117 40% 2 05.12.2026 -
Edoardo Bove Watford Ativo 121 / 125 40% 1 05.12.2026 -
Ollie Tanner Cardiff City Ativo 122 / 120 40% 1 30.11.2026 -
Milan van Ewijk Coventry City Ativo 144 / 131 40% 1 29.11.2026 -
Max Bird Birmingham Ativo 138 / 126 40% 1 28.11.2026 -
James Morris Leyton Orient Ativo 107 / 115 40% 1 28.11.2026 -
Bobby Thomas Coventry City Ativo 121 / 137 40% 1 25.11.2026 -
Simon Ramabu Polokwane City Ativo 116 / 103 40% 1 25.11.2026 -
Koki Saito Queens Park Rangers Ativo 121 / 128 40% 1 24.11.2026 -
Tim Iroegbunam Hull City Ativo 129 / 147 40% 2 22.11.2026 -
Liam Thompson Mansfield Town Ativo 110 / 117 40% 1 22.11.2026 -
El Hadji Malick Diouf Brentford Ativo 135 / 134 40% 2 21.11.2026 -
Habib Diarra Sunderland Ativo 151 / 148 40% 1 18.11.2026 -
Juan Manuel Sanabria Real Salt Lake Ativo 108 / 137 40% 1 16.11.2026 -
Finn Azaz Southampton Ativo 124 / 135 40% 1 15.11.2026 -
Rumarn Burrell Queens Park Rangers Ativo 110 / 118 40% 1 14.11.2026 -
Joaquín Pereyra Minnesota United FC Ativo 132 / 139 40% 1 14.11.2026 -
Mduduzi Shabalala Kaizer Chiefs Ativo 129 / 104 40% 2 11.11.2026 -
Martín Ojeda Orlando City Ativo 141 / 132 40% 1 11.11.2026 -
Aaron Connolly Ruch Ativo 121 / 128 40% 1 08.11.2026 -
Oswin Appollis Orlando Pirates Ativo 134 / 114 40% 1 06.11.2026 -
Harry Pickering Blackburn Rovers Ativo 126 / 107 40% 1 03.11.2026 -
Pelle Mattsson Norwich City Ativo 115 / 128 40% 1 03.11.2026 -
Tyler Goodrham Oxford United Ativo 133 / 123 40% 1 02.11.2026 -
Sidiki Chérif Coventry City Ativo 119 / 132 40% 1 19.10.2026 -
Jake Waters Pineto Ativo 75 / 79 40% 1 18.10.2026 -
Miloš Jovičić Zabbar St. Patrick Ativo 82 / 96 40% 1 17.10.2026 -
Nicolás Romero Minnesota United FC Ativo 133 / 127 40% 1 16.10.2026 -
Alhassan Yusuf New England Revolution Ativo 108 / 123 40% 1 16.10.2026 -
Archie Goodwin Charlotte Football Club Ativo 121 / 99 40% 1 15.10.2026 -
Pedro Porro Tottenham Ativo 148 / 140 40% 2 11.10.2026 -
Nectar Triantis Minnesota United FC Ativo 132 / 132 40% 1 10.10.2026 -
Kristoffer Lund Birmingham Ativo 138 / 132 40% 1 09.10.2026 -
Kamogelo Sebelebele Orlando Pirates Ativo 130 / 103 40% 1 09.10.2026 -
Bryan Ramírez FC Cincinnati Ativo 111 / 134 40% 2 06.10.2026 -
Braian Ojeda Orlando City Ativo 136 / 134 40% 1 06.10.2026 -
Kyreece Lisbie Colchester United Ativo 96 / 115 44% 1 03.08.2026 -